createdAt,value
2023-03-29T00:02:04.806Z,0.68
2023-03-29T00:07:07.576Z,1.05
2023-03-29T00:12:11.464Z,0.85
2023-03-29T00:17:13.740Z,0.82
2023-03-29T00:22:15.959Z,0.68
2023-03-29T00:27:18.093Z,0.70
2023-03-29T00:32:20.245Z,0.73
2023-03-29T00:37:22.872Z,0.60
2023-03-29T00:42:26.563Z,0.80
2023-03-29T00:47:40.474Z,0.70
2023-03-29T00:52:48.432Z,0.80
2023-03-29T00:57:53.990Z,0.47
2023-03-29T01:03:01.990Z,0.75
2023-03-29T01:08:09.355Z,0.57
2023-03-29T01:13:17.713Z,1.00
2023-03-29T01:18:22.375Z,1.15
2023-03-29T01:23:40.163Z,0.80
2023-03-29T01:28:52.022Z,0.60
2023-03-29T01:34:01.998Z,0.60
2023-03-29T01:39:06.403Z,0.73
2023-03-29T01:44:38.112Z,0.45
2023-03-29T01:50:06.777Z,0.40
2023-03-29T01:55:20.952Z,0.70
2023-03-29T02:00:27.858Z,0.60
2023-03-29T02:05:32.006Z,0.38
2023-03-29T02:10:35.581Z,0.52
2023-03-29T02:15:38.910Z,0.70
2023-03-29T02:20:43.936Z,0.40
2023-03-29T02:25:47.213Z,0.45
2023-03-29T02:31:08.514Z,1.17
2023-03-29T02:36:22.794Z,0.68
2023-03-29T02:41:26.832Z,0.60
2023-03-29T02:46:29.148Z,0.60
2023-03-29T02:51:34.603Z,0.60
2023-03-29T02:56:45.555Z,0.52
2023-03-29T03:01:47.895Z,0.60
2023-03-29T03:06:50.129Z,0.90
2023-03-29T03:11:52.321Z,0.90
2023-03-29T03:16:55.422Z,1.10
2023-03-29T03:21:57.757Z,0.95
2023-03-29T03:27:00.097Z,0.90
2023-03-29T03:32:02.466Z,2.35
2023-03-29T03:37:04.630Z,1.60
2023-03-29T03:42:08.452Z,2.50
2023-03-29T03:47:10.991Z,1.42
2023-03-29T03:52:13.489Z,2.50
2023-03-29T03:57:15.600Z,4.25
2023-03-29T04:02:18.157Z,7.65
2023-03-29T04:07:20.387Z,7.03
2023-03-29T04:12:22.631Z,6.93
2023-03-29T04:17:24.870Z,6.75
2023-03-29T04:22:27.623Z,5.70
2023-03-29T04:27:29.917Z,7.18
2023-03-29T04:32:32.236Z,4.57
2023-03-29T04:37:34.501Z,3.05
2023-03-29T04:42:37.772Z,3.53
2023-03-29T04:47:41.145Z,2.72
2023-03-29T04:52:45.780Z,1.67
2023-03-29T04:57:48.032Z,1.25
2023-03-29T05:02:50.374Z,1.33
2023-03-29T05:07:52.655Z,1.33
2023-03-29T05:12:54.913Z,1.40
2023-03-29T05:17:58.827Z,0.50
2023-03-29T05:23:01.873Z,0.60
2023-03-29T05:28:04.280Z,1.33
2023-03-29T05:33:06.796Z,1.27
2023-03-29T05:38:09.177Z,1.20
2023-03-29T05:43:11.418Z,0.70
2023-03-29T05:48:13.795Z,0.80
2023-03-29T05:53:16.950Z,1.20
2023-03-29T05:58:20.646Z,0.73
2023-03-29T06:03:27.769Z,0.55
2023-03-29T06:08:30.995Z,0.85
2023-03-29T06:13:34.433Z,1.05
2023-03-29T06:18:37.043Z,1.65
2023-03-29T06:23:39.497Z,0.63
2023-03-29T06:28:42.410Z,1.30
2023-03-29T06:33:44.602Z,0.90
2023-03-29T06:38:47.474Z,0.95
2023-03-29T06:43:49.562Z,1.10
2023-03-29T06:48:51.903Z,0.73
2023-03-29T06:53:54.081Z,1.10
2023-03-29T06:58:57.120Z,1.08
2023-03-29T07:04:04.235Z,0.90
2023-03-29T07:09:07.257Z,0.93
2023-03-29T07:14:10.021Z,0.60
2023-03-29T07:19:12.138Z,0.63
2023-03-29T07:24:14.348Z,0.70
2023-03-29T07:29:16.986Z,0.65
2023-03-29T07:34:19.154Z,0.70
2023-03-29T07:39:23.554Z,0.98
2023-03-29T07:44:27.383Z,1.15
2023-03-29T07:49:29.544Z,0.98
2023-03-29T07:54:33.112Z,1.13
2023-03-29T07:59:35.279Z,0.82
2023-03-29T08:04:37.823Z,1.15
2023-03-29T08:09:40.044Z,0.65
2023-03-29T08:14:42.146Z,0.80
2023-03-29T08:19:50.734Z,0.70
2023-03-29T08:24:53.469Z,1.60
2023-03-29T08:29:55.686Z,0.80
2023-03-29T08:34:57.959Z,0.68
2023-03-29T08:40:01.268Z,0.80
2023-03-29T08:45:19.128Z,1.00
2023-03-29T08:50:26.420Z,0.70
2023-03-29T08:55:37.979Z,0.85
2023-03-29T09:01:01.438Z,0.95
2023-03-29T09:06:07.119Z,0.80
2023-03-29T09:11:24.439Z,0.60
2023-03-29T09:16:45.112Z,0.80
2023-03-29T09:22:15.203Z,0.75
2023-03-29T09:27:31.676Z,0.97
2023-03-29T09:32:51.718Z,0.80
2023-03-29T09:37:55.221Z,0.45
2023-03-29T09:42:58.921Z,0.52
2023-03-29T09:48:19.735Z,0.60
2023-03-29T09:53:22.371Z,0.95
2023-03-29T09:58:27.854Z,0.63
2023-03-29T10:03:32.619Z,0.50
2023-03-29T10:08:43.134Z,0.85
2023-03-29T10:13:50.573Z,0.50
2023-03-29T10:18:54.927Z,0.55
2023-03-29T10:24:00.017Z,0.70
2023-03-29T10:29:05.390Z,0.60
2023-03-29T10:34:09.372Z,0.57
2023-03-29T10:39:16.090Z,0.82
2023-03-29T10:44:33.507Z,0.75
2023-03-29T10:49:47.808Z,0.40
2023-03-29T10:54:52.715Z,0.60
2023-03-29T11:00:07.303Z,0.63
2023-03-29T11:05:24.923Z,0.50
2023-03-29T11:10:35.866Z,0.52
2023-03-29T11:16:26.376Z,0.60
2023-03-29T11:22:02.523Z,0.53
2023-03-29T11:27:10.717Z,0.60
2023-03-29T11:32:44.696Z,0.50
2023-03-29T11:38:00.624Z,0.28
2023-03-29T11:43:21.363Z,0.40
2023-03-29T11:48:32.998Z,0.52
2023-03-29T11:53:40.992Z,0.60
2023-03-29T11:58:48.964Z,0.57
2023-03-29T12:03:56.098Z,0.57
2023-03-29T12:09:04.323Z,0.60
2023-03-29T12:14:28.152Z,0.63
2023-03-29T12:19:50.055Z,0.70
2023-03-29T12:24:55.406Z,0.68
2023-03-29T12:30:34.237Z,0.50
2023-03-29T12:35:42.660Z,0.45
2023-03-29T12:41:12.825Z,0.60
2023-03-29T12:46:26.082Z,0.80
2023-03-29T12:51:33.795Z,0.60
2023-03-29T12:56:44.007Z,0.50
2023-03-29T13:02:15.648Z,0.50
2023-03-29T13:07:23.901Z,0.95
2023-03-29T13:12:33.489Z,0.60
2023-03-29T13:22:45.816Z,0.40
2023-03-29T13:28:19.590Z,0.70
2023-03-29T13:33:37.382Z,0.50
2023-03-29T13:38:53.039Z,0.63
2023-03-29T13:43:56.865Z,0.80
2023-03-29T13:49:05.847Z,0.68
2023-03-29T13:54:16.588Z,1.45
2023-03-29T13:59:30.465Z,0.80
2023-03-29T14:04:45.423Z,0.47
2023-03-29T14:09:51.488Z,0.60
2023-03-29T14:14:59.663Z,0.52
2023-03-29T14:20:09.222Z,0.68
2023-03-29T14:25:17.726Z,0.57
2023-03-29T14:30:27.660Z,1.30
2023-03-29T14:35:33.638Z,1.05
2023-03-29T14:40:36.050Z,1.05
2023-03-29T14:45:38.814Z,0.68
2023-03-29T14:50:44.537Z,0.70
2023-03-29T14:55:50.867Z,0.52
2023-03-29T15:00:53.827Z,0.80
2023-03-29T15:06:04.213Z,0.70
2023-03-29T15:11:28.274Z,1.40
2023-03-29T15:16:31.858Z,1.23
2023-03-29T15:21:36.337Z,0.50
2023-03-29T15:26:38.925Z,0.80
2023-03-29T15:31:42.482Z,1.23
2023-03-29T15:36:46.724Z,0.95
2023-03-29T15:41:51.607Z,1.50
2023-03-29T15:46:55.656Z,1.05
2023-03-29T15:51:57.872Z,1.85
2023-03-29T15:57:14.177Z,1.27
2023-03-29T16:02:17.786Z,1.20
2023-03-29T16:07:21.178Z,1.58
2023-03-29T16:12:23.631Z,1.95
2023-03-29T16:17:25.715Z,1.40
2023-03-29T16:22:29.733Z,1.50
2023-03-29T16:27:33.132Z,3.30
2023-03-29T16:32:35.293Z,2.03
2023-03-29T16:37:37.479Z,1.73
2023-03-29T16:42:40.319Z,1.73
2023-03-29T16:47:45.920Z,2.20
2023-03-29T16:52:57.500Z,3.20
2023-03-29T16:57:59.671Z,3.40
2023-03-29T17:03:02.274Z,3.05
2023-03-29T17:08:04.494Z,3.50
2023-03-29T17:13:07.066Z,4.68
2023-03-29T17:18:09.618Z,4.70
2023-03-29T17:23:12.120Z,5.47
2023-03-29T17:28:14.512Z,3.08
2023-03-29T17:33:17.334Z,3.60
2023-03-29T17:38:20.408Z,3.63
2023-03-29T17:43:23.314Z,3.28
2023-03-29T17:48:26.169Z,2.80
2023-03-29T17:53:28.553Z,3.97
2023-03-29T17:58:30.914Z,4.50
2023-03-29T18:03:33.441Z,4.13
2023-03-29T18:08:36.234Z,4.00
2023-03-29T18:13:40.138Z,3.38
2023-03-29T18:18:44.514Z,4.05
2023-03-29T18:23:48.320Z,4.35
2023-03-29T18:28:51.476Z,3.70
2023-03-29T18:33:53.652Z,6.90
2023-03-29T18:38:56.234Z,4.53
2023-03-29T18:44:00.481Z,4.70
2023-03-29T18:49:03.297Z,5.47
2023-03-29T18:54:06.647Z,5.28
2023-03-29T18:59:08.929Z,5.07
2023-03-29T19:04:11.201Z,4.75
2023-03-29T19:09:13.325Z,5.10
2023-03-29T19:14:15.813Z,4.53
2023-03-29T19:19:19.012Z,5.40
2023-03-29T19:24:22.295Z,6.88
2023-03-29T19:29:24.565Z,8.48
2023-03-29T19:34:27.078Z,5.75
2023-03-29T19:39:30.134Z,6.82
2023-03-29T19:44:32.343Z,7.10
2023-03-29T19:49:36.907Z,10.57
2023-03-29T19:54:39.309Z,9.35
2023-03-29T19:59:43.234Z,9.73
2023-03-29T20:04:46.087Z,9.20
2023-03-29T20:09:48.175Z,12.30
2023-03-29T20:14:50.327Z,12.00
2023-03-29T20:19:54.264Z,10.75
2023-03-29T20:24:57.361Z,5.82
2023-03-29T20:29:59.486Z,8.05
2023-03-29T20:35:01.766Z,7.75
2023-03-29T20:40:05.750Z,8.30
2023-03-29T20:45:09.236Z,8.48
2023-03-29T20:50:11.467Z,8.13
2023-03-29T20:55:13.650Z,7.90
2023-03-29T21:00:16.324Z,7.93
2023-03-29T21:05:19.675Z,7.90
2023-03-29T21:10:23.934Z,7.50
2023-03-29T21:15:28.452Z,7.95
2023-03-29T21:20:30.792Z,7.97
2023-03-29T21:25:32.985Z,9.77
2023-03-29T21:30:35.099Z,8.68
2023-03-29T21:35:37.526Z,12.90
2023-03-29T21:40:39.748Z,13.57
2023-03-29T21:45:41.879Z,7.70
2023-03-29T21:50:44.573Z,7.85
2023-03-29T21:55:49.593Z,6.43
2023-03-29T22:00:51.915Z,8.65
2023-03-29T22:06:02.955Z,4.05
2023-03-29T22:11:12.075Z,3.67
2023-03-29T22:16:17.031Z,4.18
2023-03-29T22:21:24.661Z,3.45
2023-03-29T22:26:31.903Z,2.92
2023-03-29T22:31:34.170Z,3.50
2023-03-29T22:36:37.102Z,4.82
2023-03-29T22:41:39.579Z,4.20
2023-03-29T22:46:41.772Z,3.65
2023-03-29T22:51:43.903Z,4.30
2023-03-29T22:56:46.063Z,3.83
2023-03-29T23:01:48.699Z,4.88
2023-03-29T23:06:51.025Z,3.58
2023-03-29T23:11:53.143Z,3.30
2023-03-29T23:16:56.638Z,3.30
2023-03-29T23:21:59.012Z,3.00
2023-03-29T23:27:02.033Z,3.28
2023-03-29T23:32:05.606Z,3.10
2023-03-29T23:37:07.794Z,3.70
2023-03-29T23:42:10.009Z,4.13
2023-03-29T23:47:12.180Z,3.92
2023-03-29T23:52:14.354Z,4.18
2023-03-29T23:57:16.538Z,5.55
